sensor_id;sensor_type;location;lat;lon;timestamp;temperature;humidity
20147;DHT22;10234;50.856;15.716;2024-02-26T00:00:10;-2.00;99.90
20147;DHT22;10234;50.856;15.716;2024-02-26T00:02:37;-1.90;99.90
20147;DHT22;10234;50.856;15.716;2024-02-26T00:05:06;-1.00;99.90
20147;DHT22;10234;50.856;15.716;2024-02-26T00:07:34;-1.90;99.90
20147;DHT22;10234;50.856;15.716;2024-02-26T00:10:01;-1.70;99.90
20147;DHT22;10234;50.856;15.716;2024-02-26T00:12:27;-2.10;99.90
20147;DHT22;10234;50.856;15.716;2024-02-26T00:14:56;-2.00;99.90
20147;DHT22;10234;50.856;15.716;2024-02-26T00:17:23;-2.10;99.90
20147;DHT22;10234;50.856;15.716;2024-02-26T00:19:51;-1.50;99.90
20147;DHT22;10234;50.856;15.716;2024-02-26T00:22:18;-2.20;99.90
20147;DHT22;10234;50.856;15.716;2024-02-26T00:24:45;-1.30;99.90
20147;DHT22;10234;50.856;15.716;2024-02-26T00:27:12;-2.20;99.90
20147;DHT22;10234;50.856;15.716;2024-02-26T00:29:39;-2.20;99.90
20147;DHT22;10234;50.856;15.716;2024-02-26T00:32:07;-2.20;99.90
20147;DHT22;10234;50.856;15.716;2024-02-26T00:34:34;-2.20;99.90
20147;DHT22;10234;50.856;15.716;2024-02-26T00:37:02;-1.00;99.90
20147;DHT22;10234;50.856;15.716;2024-02-26T00:39:29;-2.30;99.90
20147;DHT22;10234;50.856;15.716;2024-02-26T00:41:55;-2.40;99.90
20147;DHT22;10234;50.856;15.716;2024-02-26T00:44:22;-2.40;99.90
20147;DHT22;10234;50.856;15.716;2024-02-26T00:46:49;-2.40;99.90
20147;DHT22;10234;50.856;15.716;2024-02-26T00:49:17;-2.30;99.90
20147;DHT22;10234;50.856;15.716;2024-02-26T00:51:44;-2.40;99.90
20147;DHT22;10234;50.856;15.716;2024-02-26T00:54:11;-2.50;99.90
20147;DHT22;10234;50.856;15.716;2024-02-26T00:56:38;-2.50;99.90
20147;DHT22;10234;50.856;15.716;2024-02-26T00:59:05;-2.50;99.90
20147;DHT22;10234;50.856;15.716;2024-02-26T01:01:32;-2.30;99.90
20147;DHT22;10234;50.856;15.716;2024-02-26T01:03:59;-2.60;99.90
20147;DHT22;10234;50.856;15.716;2024-02-26T01:06:27;-2.60;99.90
20147;DHT22;10234;50.856;15.716;2024-02-26T01:08:54;-2.70;99.90
20147;DHT22;10234;50.856;15.716;2024-02-26T01:11:21;-2.80;99.90
20147;DHT22;10234;50.856;15.716;2024-02-26T01:13:47;-2.70;99.90
20147;DHT22;10234;50.856;15.716;2024-02-26T01:16:18;-2.90;99.90
20147;DHT22;10234;50.856;15.716;2024-02-26T01:18:45;-2.70;99.90
20147;DHT22;10234;50.856;15.716;2024-02-26T01:21:12;-2.70;99.90
20147;DHT22;10234;50.856;15.716;2024-02-26T01:23:41;-2.80;99.90
20147;DHT22;10234;50.856;15.716;2024-02-26T01:26:08;-2.80;99.90
20147;DHT22;10234;50.856;15.716;2024-02-26T01:28:36;-2.80;99.90
20147;DHT22;10234;50.856;15.716;2024-02-26T01:31:03;-2.80;99.90
20147;DHT22;10234;50.856;15.716;2024-02-26T01:33:31;-2.80;99.90
20147;DHT22;10234;50.856;15.716;2024-02-26T01:35:57;-2.80;99.90
20147;DHT22;10234;50.856;15.716;2024-02-26T01:38:24;-2.80;99.90
20147;DHT22;10234;50.856;15.716;2024-02-26T01:40:52;-2.80;99.90
20147;DHT22;10234;50.856;15.716;2024-02-26T01:43:19;-2.30;99.90
20147;DHT22;10234;50.856;15.716;2024-02-26T01:45:46;-2.90;99.90
20147;DHT22;10234;50.856;15.716;2024-02-26T01:48:13;-3.00;99.90
20147;DHT22;10234;50.856;15.716;2024-02-26T01:50:40;-2.90;99.90
20147;DHT22;10234;50.856;15.716;2024-02-26T01:53:08;-2.90;99.90
20147;DHT22;10234;50.856;15.716;2024-02-26T01:55:35;-3.00;99.90
20147;DHT22;10234;50.856;15.716;2024-02-26T01:58:04;-2.70;99.90
20147;DHT22;10234;50.856;15.716;2024-02-26T02:00:31;-3.10;99.90
20147;DHT22;10234;50.856;15.716;2024-02-26T02:02:58;-1.40;99.90
20147;DHT22;10234;50.856;15.716;2024-02-26T02:05:26;-2.90;99.90
20147;DHT22;10234;50.856;15.716;2024-02-26T02:07:53;-2.50;99.90
20147;DHT22;10234;50.856;15.716;2024-02-26T02:10:20;-3.20;99.90
20147;DHT22;10234;50.856;15.716;2024-02-26T02:12:51;-3.20;99.90
20147;DHT22;10234;50.856;15.716;2024-02-26T02:15:19;-3.50;99.90
20147;DHT22;10234;50.856;15.716;2024-02-26T02:17:47;-3.10;99.90
20147;DHT22;10234;50.856;15.716;2024-02-26T02:20:16;-3.20;99.90
20147;DHT22;10234;50.856;15.716;2024-02-26T02:22:45;-3.20;99.90
20147;DHT22;10234;50.856;15.716;2024-02-26T02:25:12;-3.20;99.90
20147;DHT22;10234;50.856;15.716;2024-02-26T02:27:39;-3.00;99.90
20147;DHT22;10234;50.856;15.716;2024-02-26T02:30:08;-3.10;99.90
20147;DHT22;10234;50.856;15.716;2024-02-26T02:32:36;-3.10;99.90
20147;DHT22;10234;50.856;15.716;2024-02-26T02:35:04;-3.10;99.90
20147;DHT22;10234;50.856;15.716;2024-02-26T02:37:32;-3.20;99.90
20147;DHT22;10234;50.856;15.716;2024-02-26T02:40:00;-3.30;99.90
20147;DHT22;10234;50.856;15.716;2024-02-26T02:42:27;-3.30;99.90
20147;DHT22;10234;50.856;15.716;2024-02-26T02:44:54;-3.40;99.90
20147;DHT22;10234;50.856;15.716;2024-02-26T02:47:21;-3.40;99.90
20147;DHT22;10234;50.856;15.716;2024-02-26T02:49:47;-3.40;99.90
20147;DHT22;10234;50.856;15.716;2024-02-26T02:52:14;-3.40;99.90
20147;DHT22;10234;50.856;15.716;2024-02-26T02:54:41;-3.30;99.90
20147;DHT22;10234;50.856;15.716;2024-02-26T02:57:09;-3.30;99.90
20147;DHT22;10234;50.856;15.716;2024-02-26T02:59:37;-3.30;99.90
20147;DHT22;10234;50.856;15.716;2024-02-26T03:02:04;-3.50;99.90
20147;DHT22;10234;50.856;15.716;2024-02-26T03:04:32;-3.10;99.90
20147;DHT22;10234;50.856;15.716;2024-02-26T03:06:58;-3.10;99.90
20147;DHT22;10234;50.856;15.716;2024-02-26T03:09:25;-3.10;99.90
20147;DHT22;10234;50.856;15.716;2024-02-26T03:11:52;-3.30;99.90
20147;DHT22;10234;50.856;15.716;2024-02-26T03:14:21;-2.70;99.90
20147;DHT22;10234;50.856;15.716;2024-02-26T03:16:48;-3.20;99.90
20147;DHT22;10234;50.856;15.716;2024-02-26T03:19:15;-2.30;99.90
20147;DHT22;10234;50.856;15.716;2024-02-26T03:21:42;-3.40;99.90
20147;DHT22;10234;50.856;15.716;2024-02-26T03:24:09;-3.40;99.90
20147;DHT22;10234;50.856;15.716;2024-02-26T03:26:38;-3.40;99.90
20147;DHT22;10234;50.856;15.716;2024-02-26T03:29:04;-3.40;99.90
20147;DHT22;10234;50.856;15.716;2024-02-26T03:31:33;-3.50;99.90
20147;DHT22;10234;50.856;15.716;2024-02-26T03:34:00;-3.40;99.90
20147;DHT22;10234;50.856;15.716;2024-02-26T03:36:26;-3.30;99.90
20147;DHT22;10234;50.856;15.716;2024-02-26T03:38:53;-3.30;99.90
20147;DHT22;10234;50.856;15.716;2024-02-26T03:41:20;-3.40;99.90
20147;DHT22;10234;50.856;15.716;2024-02-26T03:43:46;-3.40;99.90
20147;DHT22;10234;50.856;15.716;2024-02-26T03:46:13;-3.40;99.90
20147;DHT22;10234;50.856;15.716;2024-02-26T03:48:41;-3.50;99.90
20147;DHT22;10234;50.856;15.716;2024-02-26T03:51:09;-3.60;99.90
20147;DHT22;10234;50.856;15.716;2024-02-26T03:53:36;-3.60;99.90
20147;DHT22;10234;50.856;15.716;2024-02-26T03:56:04;-1.20;99.90
20147;DHT22;10234;50.856;15.716;2024-02-26T03:58:31;-3.70;99.90
20147;DHT22;10234;50.856;15.716;2024-02-26T04:00:58;-3.10;99.90
20147;DHT22;10234;50.856;15.716;2024-02-26T04:03:25;-3.70;99.90
20147;DHT22;10234;50.856;15.716;2024-02-26T04:05:53;-3.70;99.90
20147;DHT22;10234;50.856;15.716;2024-02-26T04:08:20;-3.70;99.90
20147;DHT22;10234;50.856;15.716;2024-02-26T04:10:48;-4.00;99.90
20147;DHT22;10234;50.856;15.716;2024-02-26T04:13:14;-3.90;99.90
20147;DHT22;10234;50.856;15.716;2024-02-26T04:15:41;-3.80;99.90
20147;DHT22;10234;50.856;15.716;2024-02-26T04:18:08;-3.90;99.90
20147;DHT22;10234;50.856;15.716;2024-02-26T04:20:35;-2.50;99.90
20147;DHT22;10234;50.856;15.716;2024-02-26T04:23:04;-3.80;99.90
20147;DHT22;10234;50.856;15.716;2024-02-26T04:25:31;-3.80;99.90
20147;DHT22;10234;50.856;15.716;2024-02-26T04:27:58;-4.50;99.90
20147;DHT22;10234;50.856;15.716;2024-02-26T04:30:24;-3.90;99.90
20147;DHT22;10234;50.856;15.716;2024-02-26T04:32:51;-3.90;99.90
20147;DHT22;10234;50.856;15.716;2024-02-26T04:35:18;-3.90;99.90
20147;DHT22;10234;50.856;15.716;2024-02-26T04:37:45;-4.30;99.90
20147;DHT22;10234;50.856;15.716;2024-02-26T04:40:13;-4.20;99.90
20147;DHT22;10234;50.856;15.716;2024-02-26T04:42:40;-3.90;99.90
20147;DHT22;10234;50.856;15.716;2024-02-26T04:45:08;-4.00;99.90
20147;DHT22;10234;50.856;15.716;2024-02-26T04:47:35;-3.90;99.90
20147;DHT22;10234;50.856;15.716;2024-02-26T04:50:02;-3.80;99.90
20147;DHT22;10234;50.856;15.716;2024-02-26T04:52:29;-4.00;99.90
20147;DHT22;10234;50.856;15.716;2024-02-26T04:54:56;-4.00;99.90
20147;DHT22;10234;50.856;15.716;2024-02-26T04:57:26;-4.00;99.90
20147;DHT22;10234;50.856;15.716;2024-02-26T04:59:53;-4.10;99.90
20147;DHT22;10234;50.856;15.716;2024-02-26T05:02:20;-3.80;99.90
20147;DHT22;10234;50.856;15.716;2024-02-26T05:04:47;-3.80;99.90
20147;DHT22;10234;50.856;15.716;2024-02-26T05:07:14;-4.20;99.90
20147;DHT22;10234;50.856;15.716;2024-02-26T05:09:43;-4.10;99.90
20147;DHT22;10234;50.856;15.716;2024-02-26T05:12:10;-4.30;99.90
20147;DHT22;10234;50.856;15.716;2024-02-26T05:14:39;-4.00;99.90
20147;DHT22;10234;50.856;15.716;2024-02-26T05:17:06;-3.90;99.90
20147;DHT22;10234;50.856;15.716;2024-02-26T05:19:33;-3.80;99.90
20147;DHT22;10234;50.856;15.716;2024-02-26T05:22:00;-3.70;99.90
20147;DHT22;10234;50.856;15.716;2024-02-26T05:24:27;-3.70;99.90
20147;DHT22;10234;50.856;15.716;2024-02-26T05:26:54;-4.00;99.90
20147;DHT22;10234;50.856;15.716;2024-02-26T05:29:21;-3.50;99.90
20147;DHT22;10234;50.856;15.716;2024-02-26T05:31:49;-3.70;99.90
20147;DHT22;10234;50.856;15.716;2024-02-26T05:34:16;-3.70;99.90
20147;DHT22;10234;50.856;15.716;2024-02-26T05:36:43;-3.80;99.90
20147;DHT22;10234;50.856;15.716;2024-02-26T05:39:10;-4.00;99.90
20147;DHT22;10234;50.856;15.716;2024-02-26T05:41:37;-3.80;99.90
20147;DHT22;10234;50.856;15.716;2024-02-26T05:44:04;-3.80;99.90
20147;DHT22;10234;50.856;15.716;2024-02-26T05:46:31;-3.80;99.90
20147;DHT22;10234;50.856;15.716;2024-02-26T05:48:59;-3.80;99.90
20147;DHT22;10234;50.856;15.716;2024-02-26T05:51:26;-3.40;99.90
20147;DHT22;10234;50.856;15.716;2024-02-26T05:53:54;-3.80;99.90
20147;DHT22;10234;50.856;15.716;2024-02-26T05:56:21;-4.00;99.90
20147;DHT22;10234;50.856;15.716;2024-02-26T05:58:48;-3.80;99.90
20147;DHT22;10234;50.856;15.716;2024-02-26T06:01:15;-3.80;99.90
20147;DHT22;10234;50.856;15.716;2024-02-26T06:03:43;-3.70;99.90
20147;DHT22;10234;50.856;15.716;2024-02-26T06:06:11;-3.70;99.90
20147;DHT22;10234;50.856;15.716;2024-02-26T06:08:38;-3.60;99.90
20147;DHT22;10234;50.856;15.716;2024-02-26T06:11:06;-3.50;99.90
20147;DHT22;10234;50.856;15.716;2024-02-26T06:13:33;-3.40;99.90
20147;DHT22;10234;50.856;15.716;2024-02-26T06:16:01;-3.40;99.90
20147;DHT22;10234;50.856;15.716;2024-02-26T06:18:28;-3.40;99.90
20147;DHT22;10234;50.856;15.716;2024-02-26T06:20:55;-3.30;99.90
20147;DHT22;10234;50.856;15.716;2024-02-26T06:23:23;-3.30;99.90
20147;DHT22;10234;50.856;15.716;2024-02-26T06:25:50;-3.20;99.90
20147;DHT22;10234;50.856;15.716;2024-02-26T06:28:17;-3.20;99.90
20147;DHT22;10234;50.856;15.716;2024-02-26T06:30:44;-3.10;99.90
20147;DHT22;10234;50.856;15.716;2024-02-26T06:33:11;-2.90;99.90
20147;DHT22;10234;50.856;15.716;2024-02-26T06:35:39;-3.20;99.90
20147;DHT22;10234;50.856;15.716;2024-02-26T06:38:07;-2.90;99.90
20147;DHT22;10234;50.856;15.716;2024-02-26T06:40:36;-2.70;99.90
20147;DHT22;10234;50.856;15.716;2024-02-26T06:43:03;-2.00;99.90
20147;DHT22;10234;50.856;15.716;2024-02-26T06:45:30;-0.20;99.90
20147;DHT22;10234;50.856;15.716;2024-02-26T06:47:56;1.90;99.90
20147;DHT22;10234;50.856;15.716;2024-02-26T06:50:23;3.10;99.90
20147;DHT22;10234;50.856;15.716;2024-02-26T06:52:50;4.00;99.90
20147;DHT22;10234;50.856;15.716;2024-02-26T06:55:17;4.90;99.90
20147;DHT22;10234;50.856;15.716;2024-02-26T06:57:45;5.50;99.90
20147;DHT22;10234;50.856;15.716;2024-02-26T07:00:13;6.40;99.90
20147;DHT22;10234;50.856;15.716;2024-02-26T07:02:42;6.90;99.90
20147;DHT22;10234;50.856;15.716;2024-02-26T07:05:09;7.60;99.90
20147;DHT22;10234;50.856;15.716;2024-02-26T07:07:36;8.30;99.90
20147;DHT22;10234;50.856;15.716;2024-02-26T07:10:03;9.20;99.90
20147;DHT22;10234;50.856;15.716;2024-02-26T07:12:31;10.20;99.90
20147;DHT22;10234;50.856;15.716;2024-02-26T07:14:59;11.40;99.90
20147;DHT22;10234;50.856;15.716;2024-02-26T07:17:28;12.10;91.60
20147;DHT22;10234;50.856;15.716;2024-02-26T07:19:55;12.40;91.10
20147;DHT22;10234;50.856;15.716;2024-02-26T07:22:22;12.70;87.70
20147;DHT22;10234;50.856;15.716;2024-02-26T07:24:49;13.20;83.20
20147;DHT22;10234;50.856;15.716;2024-02-26T07:27:16;13.80;79.50
20147;DHT22;10234;50.856;15.716;2024-02-26T07:29:43;14.50;78.80
20147;DHT22;10234;50.856;15.716;2024-02-26T07:32:11;15.50;71.30
20147;DHT22;10234;50.856;15.716;2024-02-26T07:34:38;15.90;67.50
20147;DHT22;10234;50.856;15.716;2024-02-26T07:37:07;16.30;62.00
20147;DHT22;10234;50.856;15.716;2024-02-26T07:39:34;16.40;63.10
20147;DHT22;10234;50.856;15.716;2024-02-26T07:42:01;16.50;61.40
20147;DHT22;10234;50.856;15.716;2024-02-26T07:44:28;16.90;59.10
20147;DHT22;10234;50.856;15.716;2024-02-26T07:46:55;16.90;58.70
20147;DHT22;10234;50.856;15.716;2024-02-26T07:49:23;17.00;58.60
20147;DHT22;10234;50.856;15.716;2024-02-26T07:51:50;17.20;58.30
20147;DHT22;10234;50.856;15.716;2024-02-26T07:54:16;17.60;56.40
20147;DHT22;10234;50.856;15.716;2024-02-26T07:56:44;18.20;57.60
20147;DHT22;10234;50.856;15.716;2024-02-26T07:59:11;18.70;57.20
20147;DHT22;10234;50.856;15.716;2024-02-26T08:01:38;19.00;56.80
20147;DHT22;10234;50.856;15.716;2024-02-26T08:04:07;19.40;56.10
20147;DHT22;10234;50.856;15.716;2024-02-26T08:06:35;19.50;55.10
20147;DHT22;10234;50.856;15.716;2024-02-26T08:09:02;19.60;54.40
20147;DHT22;10234;50.856;15.716;2024-02-26T08:11:29;19.50;56.10
20147;DHT22;10234;50.856;15.716;2024-02-26T08:13:56;20.40;53.30
20147;DHT22;10234;50.856;15.716;2024-02-26T08:16:24;20.70;52.90
20147;DHT22;10234;50.856;15.716;2024-02-26T08:18:51;20.60;53.40
20147;DHT22;10234;50.856;15.716;2024-02-26T08:21:18;21.30;53.10
20147;DHT22;10234;50.856;15.716;2024-02-26T08:23:46;21.30;52.60
20147;DHT22;10234;50.856;15.716;2024-02-26T08:26:13;21.50;50.90
20147;DHT22;10234;50.856;15.716;2024-02-26T08:28:40;21.80;50.60
20147;DHT22;10234;50.856;15.716;2024-02-26T08:31:07;21.40;50.50
20147;DHT22;10234;50.856;15.716;2024-02-26T08:33:34;21.00;50.10
20147;DHT22;10234;50.856;15.716;2024-02-26T08:36:04;20.50;52.40
20147;DHT22;10234;50.856;15.716;2024-02-26T08:38:31;20.30;51.70
20147;DHT22;10234;50.856;15.716;2024-02-26T08:41:01;20.30;51.50
20147;DHT22;10234;50.856;15.716;2024-02-26T08:43:28;20.50;50.90
20147;DHT22;10234;50.856;15.716;2024-02-26T08:45:56;20.40;51.10
20147;DHT22;10234;50.856;15.716;2024-02-26T08:48:24;20.80;51.40
20147;DHT22;10234;50.856;15.716;2024-02-26T08:50:51;21.60;51.10
20147;DHT22;10234;50.856;15.716;2024-02-26T08:53:17;21.90;49.00
20147;DHT22;10234;50.856;15.716;2024-02-26T08:55:44;22.00;50.20
20147;DHT22;10234;50.856;15.716;2024-02-26T08:58:12;22.30;50.50
20147;DHT22;10234;50.856;15.716;2024-02-26T09:00:39;23.00;49.80
20147;DHT22;10234;50.856;15.716;2024-02-26T09:03:06;22.90;48.90
20147;DHT22;10234;50.856;15.716;2024-02-26T09:05:32;23.00;48.40
20147;DHT22;10234;50.856;15.716;2024-02-26T09:08:00;23.30;49.00
20147;DHT22;10234;50.856;15.716;2024-02-26T09:10:27;23.80;46.80
20147;DHT22;10234;50.856;15.716;2024-02-26T09:12:54;24.10;45.60
20147;DHT22;10234;50.856;15.716;2024-02-26T09:15:23;24.00;46.30
20147;DHT22;10234;50.856;15.716;2024-02-26T09:17:50;24.10;47.10
20147;DHT22;10234;50.856;15.716;2024-02-26T09:20:17;24.30;46.70
20147;DHT22;10234;50.856;15.716;2024-02-26T09:22:45;23.90;45.40
20147;DHT22;10234;50.856;15.716;2024-02-26T09:25:12;23.80;46.50
20147;DHT22;10234;50.856;15.716;2024-02-26T09:27:41;24.10;45.90
20147;DHT22;10234;50.856;15.716;2024-02-26T09:30:08;24.40;46.90
20147;DHT22;10234;50.856;15.716;2024-02-26T09:32:37;24.70;46.00
20147;DHT22;10234;50.856;15.716;2024-02-26T09:35:05;25.50;46.50
20147;DHT22;10234;50.856;15.716;2024-02-26T09:37:32;25.80;44.80
20147;DHT22;10234;50.856;15.716;2024-02-26T09:39:59;26.20;43.70
20147;DHT22;10234;50.856;15.716;2024-02-26T09:42:26;26.20;42.70
20147;DHT22;10234;50.856;15.716;2024-02-26T09:44:54;26.00;40.90
20147;DHT22;10234;50.856;15.716;2024-02-26T09:47:23;25.60;41.40
20147;DHT22;10234;50.856;15.716;2024-02-26T09:49:52;25.30;40.70
20147;DHT22;10234;50.856;15.716;2024-02-26T09:52:20;25.40;40.40
20147;DHT22;10234;50.856;15.716;2024-02-26T09:54:47;25.10;40.70
20147;DHT22;10234;50.856;15.716;2024-02-26T09:57:15;24.10;40.60
20147;DHT22;10234;50.856;15.716;2024-02-26T09:59:44;23.60;42.20
20147;DHT22;10234;50.856;15.716;2024-02-26T10:02:12;23.10;44.10
20147;DHT22;10234;50.856;15.716;2024-02-26T10:04:40;23.50;45.60
20147;DHT22;10234;50.856;15.716;2024-02-26T10:07:11;24.30;43.80
20147;DHT22;10234;50.856;15.716;2024-02-26T10:09:39;24.90;45.30
20147;DHT22;10234;50.856;15.716;2024-02-26T10:12:08;25.60;41.50
20147;DHT22;10234;50.856;15.716;2024-02-26T10:14:36;25.40;38.90
20147;DHT22;10234;50.856;15.716;2024-02-26T10:17:04;24.80;38.60
20147;DHT22;10234;50.856;15.716;2024-02-26T10:19:33;24.50;39.60
20147;DHT22;10234;50.856;15.716;2024-02-26T10:22:01;24.20;43.10
20147;DHT22;10234;50.856;15.716;2024-02-26T10:24:30;24.20;40.30
20147;DHT22;10234;50.856;15.716;2024-02-26T10:26:57;23.90;39.80
20147;DHT22;10234;50.856;15.716;2024-02-26T10:29:25;22.30;41.50
20147;DHT22;10234;50.856;15.716;2024-02-26T10:31:53;20.30;45.40
20147;DHT22;10234;50.856;15.716;2024-02-26T10:34:20;19.80;47.40
20147;DHT22;10234;50.856;15.716;2024-02-26T10:36:47;20.50;46.90
20147;DHT22;10234;50.856;15.716;2024-02-26T10:39:14;20.70;45.80
20147;DHT22;10234;50.856;15.716;2024-02-26T10:41:44;20.90;45.90
20147;DHT22;10234;50.856;15.716;2024-02-26T10:44:11;20.30;45.70
20147;DHT22;10234;50.856;15.716;2024-02-26T10:46:40;20.00;45.60
20147;DHT22;10234;50.856;15.716;2024-02-26T10:49:13;19.80;46.00
20147;DHT22;10234;50.856;15.716;2024-02-26T10:51:44;19.90;46.80
20147;DHT22;10234;50.856;15.716;2024-02-26T10:54:15;20.40;47.90
20147;DHT22;10234;50.856;15.716;2024-02-26T10:56:46;21.00;46.20
20147;DHT22;10234;50.856;15.716;2024-02-26T10:59:14;21.50;44.70
20147;DHT22;10234;50.856;15.716;2024-02-26T11:01:47;22.10;45.00
20147;DHT22;10234;50.856;15.716;2024-02-26T11:04:15;22.10;44.00
20147;DHT22;10234;50.856;15.716;2024-02-26T11:06:42;21.70;43.70
20147;DHT22;10234;50.856;15.716;2024-02-26T11:09:12;21.10;44.30
20147;DHT22;10234;50.856;15.716;2024-02-26T11:11:39;21.90;45.60
20147;DHT22;10234;50.856;15.716;2024-02-26T11:14:09;20.00;45.50
20147;DHT22;10234;50.856;15.716;2024-02-26T11:16:38;18.80;46.90
20147;DHT22;10234;50.856;15.716;2024-02-26T11:19:06;18.00;47.50
20147;DHT22;10234;50.856;15.716;2024-02-26T11:21:35;18.00;48.60
20147;DHT22;10234;50.856;15.716;2024-02-26T11:24:08;18.50;49.10
20147;DHT22;10234;50.856;15.716;2024-02-26T11:26:38;19.20;49.30
20147;DHT22;10234;50.856;15.716;2024-02-26T11:29:09;19.80;47.20
20147;DHT22;10234;50.856;15.716;2024-02-26T11:31:38;20.10;45.50
20147;DHT22;10234;50.856;15.716;2024-02-26T11:34:07;20.20;46.20
20147;DHT22;10234;50.856;15.716;2024-02-26T11:36:36;19.70;48.90
20147;DHT22;10234;50.856;15.716;2024-02-26T11:39:04;19.00;48.00
20147;DHT22;10234;50.856;15.716;2024-02-26T11:41:31;18.00;48.10
20147;DHT22;10234;50.856;15.716;2024-02-26T11:44:00;17.30;51.90
20147;DHT22;10234;50.856;15.716;2024-02-26T11:46:29;17.10;52.10
20147;DHT22;10234;50.856;15.716;2024-02-26T11:48:58;17.20;51.80
20147;DHT22;10234;50.856;15.716;2024-02-26T11:51:26;17.20;53.50
20147;DHT22;10234;50.856;15.716;2024-02-26T11:53:54;17.30;52.80
20147;DHT22;10234;50.856;15.716;2024-02-26T11:56:23;17.30;52.70
20147;DHT22;10234;50.856;15.716;2024-02-26T11:58:59;17.20;51.40
20147;DHT22;10234;50.856;15.716;2024-02-26T12:01:38;17.10;51.60
20147;DHT22;10234;50.856;15.716;2024-02-26T12:04:07;17.10;52.40
20147;DHT22;10234;50.856;15.716;2024-02-26T12:06:45;17.20;53.20
20147;DHT22;10234;50.856;15.716;2024-02-26T12:09:13;17.20;54.50
20147;DHT22;10234;50.856;15.716;2024-02-26T12:11:40;17.30;52.10
20147;DHT22;10234;50.856;15.716;2024-02-26T12:14:09;17.20;52.20
20147;DHT22;10234;50.856;15.716;2024-02-26T12:16:38;17.00;52.10
20147;DHT22;10234;50.856;15.716;2024-02-26T12:19:06;16.60;52.80
20147;DHT22;10234;50.856;15.716;2024-02-26T12:21:34;16.50;53.90
20147;DHT22;10234;50.856;15.716;2024-02-26T12:24:11;16.20;55.10
20147;DHT22;10234;50.856;15.716;2024-02-26T12:26:38;16.00;52.90
20147;DHT22;10234;50.856;15.716;2024-02-26T12:29:06;15.40;53.30
20147;DHT22;10234;50.856;15.716;2024-02-26T12:31:34;15.00;53.70
20147;DHT22;10234;50.856;15.716;2024-02-26T12:34:04;14.50;53.70
20147;DHT22;10234;50.856;15.716;2024-02-26T12:36:31;14.10;55.20
20147;DHT22;10234;50.856;15.716;2024-02-26T12:39:00;13.60;55.70
20147;DHT22;10234;50.856;15.716;2024-02-26T12:41:27;13.20;56.40
20147;DHT22;10234;50.856;15.716;2024-02-26T12:43:55;13.80;57.50
20147;DHT22;10234;50.856;15.716;2024-02-26T12:46:24;13.00;56.60
20147;DHT22;10234;50.856;15.716;2024-02-26T12:48:51;12.70;57.80
20147;DHT22;10234;50.856;15.716;2024-02-26T12:51:21;12.50;58.50
20147;DHT22;10234;50.856;15.716;2024-02-26T12:53:48;12.50;59.10
20147;DHT22;10234;50.856;15.716;2024-02-26T12:56:18;12.40;59.70
20147;DHT22;10234;50.856;15.716;2024-02-26T12:58:45;12.30;60.60
20147;DHT22;10234;50.856;15.716;2024-02-26T13:01:15;12.40;60.50
20147;DHT22;10234;50.856;15.716;2024-02-26T13:03:43;12.50;60.70
20147;DHT22;10234;50.856;15.716;2024-02-26T13:06:10;12.60;60.60
20147;DHT22;10234;50.856;15.716;2024-02-26T13:08:39;12.40;60.90
20147;DHT22;10234;50.856;15.716;2024-02-26T13:11:06;12.40;60.50
20147;DHT22;10234;50.856;15.716;2024-02-26T13:13:33;12.30;61.00
20147;DHT22;10234;50.856;15.716;2024-02-26T13:16:04;12.20;61.00
20147;DHT22;10234;50.856;15.716;2024-02-26T13:18:32;12.10;61.80
20147;DHT22;10234;50.856;15.716;2024-02-26T13:21:12;12.10;61.50
20147;DHT22;10234;50.856;15.716;2024-02-26T13:23:42;12.10;62.10
20147;DHT22;10234;50.856;15.716;2024-02-26T13:26:12;12.10;62.30
20147;DHT22;10234;50.856;15.716;2024-02-26T13:28:40;11.90;63.00
20147;DHT22;10234;50.856;15.716;2024-02-26T13:31:08;11.80;63.30
20147;DHT22;10234;50.856;15.716;2024-02-26T13:33:35;11.70;63.70
20147;DHT22;10234;50.856;15.716;2024-02-26T13:36:03;11.60;63.70
20147;DHT22;10234;50.856;15.716;2024-02-26T13:38:30;11.50;64.40
20147;DHT22;10234;50.856;15.716;2024-02-26T13:41:01;11.50;64.10
20147;DHT22;10234;50.856;15.716;2024-02-26T13:43:27;11.40;64.60
20147;DHT22;10234;50.856;15.716;2024-02-26T13:45:54;11.30;64.70
20147;DHT22;10234;50.856;15.716;2024-02-26T13:48:21;11.30;65.90
20147;DHT22;10234;50.856;15.716;2024-02-26T13:50:48;11.10;66.30
20147;DHT22;10234;50.856;15.716;2024-02-26T13:53:15;11.10;67.10
20147;DHT22;10234;50.856;15.716;2024-02-26T13:55:42;11.20;66.70
20147;DHT22;10234;50.856;15.716;2024-02-26T13:58:11;11.10;67.00
20147;DHT22;10234;50.856;15.716;2024-02-26T14:00:39;11.10;68.20
20147;DHT22;10234;50.856;15.716;2024-02-26T14:03:07;11.10;67.70
20147;DHT22;10234;50.856;15.716;2024-02-26T14:05:34;11.20;67.40
20147;DHT22;10234;50.856;15.716;2024-02-26T14:08:01;11.10;67.70
20147;DHT22;10234;50.856;15.716;2024-02-26T14:10:28;11.00;68.20
20147;DHT22;10234;50.856;15.716;2024-02-26T14:12:57;10.90;67.60
20147;DHT22;10234;50.856;15.716;2024-02-26T14:15:25;10.70;68.50
20147;DHT22;10234;50.856;15.716;2024-02-26T14:17:52;10.80;69.50
20147;DHT22;10234;50.856;15.716;2024-02-26T14:20:22;10.80;70.90
20147;DHT22;10234;50.856;15.716;2024-02-26T14:22:49;10.80;70.10
20147;DHT22;10234;50.856;15.716;2024-02-26T14:25:17;10.80;70.60
20147;DHT22;10234;50.856;15.716;2024-02-26T14:27:44;10.80;71.70
20147;DHT22;10234;50.856;15.716;2024-02-26T14:30:11;10.80;72.30
20147;DHT22;10234;50.856;15.716;2024-02-26T14:32:40;10.80;72.10
20147;DHT22;10234;50.856;15.716;2024-02-26T14:35:07;10.60;74.30
20147;DHT22;10234;50.856;15.716;2024-02-26T14:37:34;10.70;74.00
20147;DHT22;10234;50.856;15.716;2024-02-26T14:40:02;10.60;78.30
20147;DHT22;10234;50.856;15.716;2024-02-26T14:42:29;10.40;79.60
20147;DHT22;10234;50.856;15.716;2024-02-26T14:44:56;11.20;80.00
20147;DHT22;10234;50.856;15.716;2024-02-26T14:47:23;10.30;80.10
20147;DHT22;10234;50.856;15.716;2024-02-26T14:49:51;10.30;81.50
20147;DHT22;10234;50.856;15.716;2024-02-26T14:52:18;10.30;84.90
20147;DHT22;10234;50.856;15.716;2024-02-26T14:54:45;10.20;85.20
20147;DHT22;10234;50.856;15.716;2024-02-26T14:57:12;10.20;85.50
20147;DHT22;10234;50.856;15.716;2024-02-26T14:59:39;10.10;86.60
20147;DHT22;10234;50.856;15.716;2024-02-26T15:02:06;10.10;88.80
20147;DHT22;10234;50.856;15.716;2024-02-26T15:04:35;10.10;89.30
20147;DHT22;10234;50.856;15.716;2024-02-26T15:07:04;10.00;93.20
20147;DHT22;10234;50.856;15.716;2024-02-26T15:09:30;9.90;92.40
20147;DHT22;10234;50.856;15.716;2024-02-26T15:11:57;10.00;91.60
20147;DHT22;10234;50.856;15.716;2024-02-26T15:14:24;9.90;94.00
20147;DHT22;10234;50.856;15.716;2024-02-26T15:16:52;9.90;93.00
20147;DHT22;10234;50.856;15.716;2024-02-26T15:19:19;9.90;94.60